sensor_id;sensor_type;location;lat;lon;timestamp;P1;durP1;ratioP1;P2;durP2;ratioP2
54139;SDS011;40046;53.254;5.900;2023-07-29T00:02:03;9.02;;;4.15;;
54139;SDS011;40046;53.254;5.900;2023-07-29T00:04:30;10.82;;;4.25;;
54139;SDS011;40046;53.254;5.900;2023-07-29T00:06:56;11.13;;;4.63;;
54139;SDS011;40046;53.254;5.900;2023-07-29T00:09:22;9.43;;;4.10;;
54139;SDS011;40046;53.254;5.900;2023-07-29T00:11:48;8.88;;;4.75;;
54139;SDS011;40046;53.254;5.900;2023-07-29T00:14:14;9.85;;;5.05;;
54139;SDS011;40046;53.254;5.900;2023-07-29T00:16:40;10.82;;;5.10;;
54139;SDS011;40046;53.254;5.900;2023-07-29T00:19:07;10.50;;;4.78;;
54139;SDS011;40046;53.254;5.900;2023-07-29T00:21:34;7.93;;;4.47;;
54139;SDS011;40046;53.254;5.900;2023-07-29T00:24:00;14.45;;;5.18;;
54139;SDS011;40046;53.254;5.900;2023-07-29T00:26:26;9.63;;;4.93;;
54139;SDS011;40046;53.254;5.900;2023-07-29T00:28:57;9.35;;;3.83;;
54139;SDS011;40046;53.254;5.900;2023-07-29T00:31:23;11.18;;;4.30;;
54139;SDS011;40046;53.254;5.900;2023-07-29T00:33:50;7.03;;;3.95;;
54139;SDS011;40046;53.254;5.900;2023-07-29T00:36:18;13.68;;;4.22;;
54139;SDS011;40046;53.254;5.900;2023-07-29T00:38:44;7.38;;;4.20;;
54139;SDS011;40046;53.254;5.900;2023-07-29T00:41:11;8.15;;;4.40;;
54139;SDS011;40046;53.254;5.900;2023-07-29T00:43:40;8.40;;;4.13;;
54139;SDS011;40046;53.254;5.900;2023-07-29T00:46:07;11.40;;;5.65;;
54139;SDS011;40046;53.254;5.900;2023-07-29T00:48:35;26.10;;;20.00;;
54139;SDS011;40046;53.254;5.900;2023-07-29T00:51:01;30.13;;;27.05;;
54139;SDS011;40046;53.254;5.900;2023-07-29T00:53:27;32.05;;;28.70;;
54139;SDS011;40046;53.254;5.900;2023-07-29T00:55:53;41.35;;;37.25;;
54139;SDS011;40046;53.254;5.900;2023-07-29T00:58:20;47.58;;;42.72;;
54139;SDS011;40046;53.254;5.900;2023-07-29T01:00:46;40.97;;;36.83;;
54139;SDS011;40046;53.254;5.900;2023-07-29T01:03:12;38.90;;;35.00;;
54139;SDS011;40046;53.254;5.900;2023-07-29T01:05:42;31.08;;;27.75;;
54139;SDS011;40046;53.254;5.900;2023-07-29T01:08:15;23.25;;;20.77;;
54139;SDS011;40046;53.254;5.900;2023-07-29T01:10:51;19.60;;;13.30;;
54139;SDS011;40046;53.254;5.900;2023-07-29T01:13:31;17.27;;;12.05;;
54139;SDS011;40046;53.254;5.900;2023-07-29T01:16:00;11.80;;;8.43;;
54139;SDS011;40046;53.254;5.900;2023-07-29T01:18:31;13.02;;;6.03;;
54139;SDS011;40046;53.254;5.900;2023-07-29T01:20:58;7.78;;;5.55;;
54139;SDS011;40046;53.254;5.900;2023-07-29T01:23:29;8.38;;;5.00;;
54139;SDS011;40046;53.254;5.900;2023-07-29T01:25:57;8.93;;;5.75;;
54139;SDS011;40046;53.254;5.900;2023-07-29T01:28:24;8.88;;;5.40;;
54139;SDS011;40046;53.254;5.900;2023-07-29T01:30:51;12.85;;;5.82;;
54139;SDS011;40046;53.254;5.900;2023-07-29T01:33:25;8.45;;;5.75;;
54139;SDS011;40046;53.254;5.900;2023-07-29T01:35:54;11.63;;;6.50;;
54139;SDS011;40046;53.254;5.900;2023-07-29T01:38:24;9.02;;;6.35;;
54139;SDS011;40046;53.254;5.900;2023-07-29T01:40:56;11.75;;;6.72;;
54139;SDS011;40046;53.254;5.900;2023-07-29T01:43:24;10.13;;;6.15;;
54139;SDS011;40046;53.254;5.900;2023-07-29T01:45:52;12.05;;;5.95;;
54139;SDS011;40046;53.254;5.900;2023-07-29T01:48:18;10.93;;;6.38;;
54139;SDS011;40046;53.254;5.900;2023-07-29T01:50:44;14.70;;;6.38;;
54139;SDS011;40046;53.254;5.900;2023-07-29T01:53:10;10.63;;;5.82;;
54139;SDS011;40046;53.254;5.900;2023-07-29T01:55:36;9.68;;;6.07;;
54139;SDS011;40046;53.254;5.900;2023-07-29T01:58:03;11.40;;;6.13;;
54139;SDS011;40046;53.254;5.900;2023-07-29T02:00:34;11.43;;;6.20;;
54139;SDS011;40046;53.254;5.900;2023-07-29T02:03:00;8.48;;;5.65;;
54139;SDS011;40046;53.254;5.900;2023-07-29T02:05:26;11.90;;;6.45;;
54139;SDS011;40046;53.254;5.900;2023-07-29T02:07:52;7.95;;;5.25;;
54139;SDS011;40046;53.254;5.900;2023-07-29T02:10:18;14.95;;;5.90;;
54139;SDS011;40046;53.254;5.900;2023-07-29T02:12:45;8.02;;;5.13;;
54139;SDS011;40046;53.254;5.900;2023-07-29T02:15:11;8.07;;;5.80;;
54139;SDS011;40046;53.254;5.900;2023-07-29T02:17:37;9.60;;;5.38;;
54139;SDS011;40046;53.254;5.900;2023-07-29T02:20:04;10.50;;;6.18;;
54139;SDS011;40046;53.254;5.900;2023-07-29T02:22:31;9.65;;;6.03;;
54139;SDS011;40046;53.254;5.900;2023-07-29T02:24:57;10.75;;;5.70;;
54139;SDS011;40046;53.254;5.900;2023-07-29T02:27:23;8.55;;;4.53;;
54139;SDS011;40046;53.254;5.900;2023-07-29T02:29:52;8.30;;;5.00;;
54139;SDS011;40046;53.254;5.900;2023-07-29T02:32:19;8.80;;;4.32;;
54139;SDS011;40046;53.254;5.900;2023-07-29T02:34:45;7.45;;;4.35;;
54139;SDS011;40046;53.254;5.900;2023-07-29T02:37:11;9.43;;;4.70;;
54139;SDS011;40046;53.254;5.900;2023-07-29T02:39:37;11.93;;;4.70;;
54139;SDS011;40046;53.254;5.900;2023-07-29T02:42:04;9.52;;;4.70;;
54139;SDS011;40046;53.254;5.900;2023-07-29T02:44:30;12.75;;;4.53;;
54139;SDS011;40046;53.254;5.900;2023-07-29T02:46:56;13.80;;;4.82;;
54139;SDS011;40046;53.254;5.900;2023-07-29T02:49:22;13.13;;;5.55;;
54139;SDS011;40046;53.254;5.900;2023-07-29T02:51:49;8.05;;;4.60;;
54139;SDS011;40046;53.254;5.900;2023-07-29T02:54:15;6.40;;;3.92;;
54139;SDS011;40046;53.254;5.900;2023-07-29T02:56:41;8.95;;;4.90;;
54139;SDS011;40046;53.254;5.900;2023-07-29T02:59:07;9.45;;;4.55;;
54139;SDS011;40046;53.254;5.900;2023-07-29T03:01:34;10.70;;;4.75;;
54139;SDS011;40046;53.254;5.900;2023-07-29T03:04:00;6.07;;;4.68;;
54139;SDS011;40046;53.254;5.900;2023-07-29T03:06:36;7.85;;;4.68;;
54139;SDS011;40046;53.254;5.900;2023-07-29T03:09:02;10.88;;;4.55;;
54139;SDS011;40046;53.254;5.900;2023-07-29T03:11:29;11.30;;;5.35;;
54139;SDS011;40046;53.254;5.900;2023-07-29T03:13:56;8.95;;;4.20;;
54139;SDS011;40046;53.254;5.900;2023-07-29T03:16:22;9.55;;;5.35;;
54139;SDS011;40046;53.254;5.900;2023-07-29T03:18:53;11.25;;;4.85;;
54139;SDS011;40046;53.254;5.900;2023-07-29T03:21:19;8.75;;;3.75;;
54139;SDS011;40046;53.254;5.900;2023-07-29T03:23:45;9.77;;;4.70;;
54139;SDS011;40046;53.254;5.900;2023-07-29T03:26:11;7.55;;;3.50;;
54139;SDS011;40046;53.254;5.900;2023-07-29T03:28:39;13.13;;;3.95;;
54139;SDS011;40046;53.254;5.900;2023-07-29T03:31:05;9.23;;;5.30;;
54139;SDS011;40046;53.254;5.900;2023-07-29T03:33:32;7.25;;;4.10;;
54139;SDS011;40046;53.254;5.900;2023-07-29T03:35:58;7.75;;;3.50;;
54139;SDS011;40046;53.254;5.900;2023-07-29T03:38:25;10.80;;;4.10;;
54139;SDS011;40046;53.254;5.900;2023-07-29T03:40:51;7.35;;;4.00;;
54139;SDS011;40046;53.254;5.900;2023-07-29T03:43:18;11.57;;;4.75;;
54139;SDS011;40046;53.254;5.900;2023-07-29T03:45:44;8.43;;;3.45;;
54139;SDS011;40046;53.254;5.900;2023-07-29T03:48:11;8.23;;;3.90;;
54139;SDS011;40046;53.254;5.900;2023-07-29T03:50:37;9.68;;;3.58;;
54139;SDS011;40046;53.254;5.900;2023-07-29T03:53:04;6.43;;;3.45;;
54139;SDS011;40046;53.254;5.900;2023-07-29T03:55:30;9.20;;;3.72;;
54139;SDS011;40046;53.254;5.900;2023-07-29T03:57:57;8.13;;;4.55;;
54139;SDS011;40046;53.254;5.900;2023-07-29T04:00:23;11.32;;;4.55;;
54139;SDS011;40046;53.254;5.900;2023-07-29T04:02:50;10.65;;;4.03;;
54139;SDS011;40046;53.254;5.900;2023-07-29T04:05:16;10.80;;;3.20;;
54139;SDS011;40046;53.254;5.900;2023-07-29T04:07:43;8.00;;;3.67;;
54139;SDS011;40046;53.254;5.900;2023-07-29T04:10:09;9.13;;;3.03;;
54139;SDS011;40046;53.254;5.900;2023-07-29T04:12:36;6.25;;;2.95;;
54139;SDS011;40046;53.254;5.900;2023-07-29T04:15:02;8.18;;;2.95;;
54139;SDS011;40046;53.254;5.900;2023-07-29T04:17:29;8.45;;;3.30;;
54139;SDS011;40046;53.254;5.900;2023-07-29T04:19:55;9.35;;;2.67;;
54139;SDS011;40046;53.254;5.900;2023-07-29T04:22:25;5.07;;;2.83;;
54139;SDS011;40046;53.254;5.900;2023-07-29T04:24:52;7.68;;;2.72;;
54139;SDS011;40046;53.254;5.900;2023-07-29T04:27:18;7.78;;;2.97;;
54139;SDS011;40046;53.254;5.900;2023-07-29T04:29:45;6.75;;;2.50;;
54139;SDS011;40046;53.254;5.900;2023-07-29T04:32:11;8.10;;;2.75;;
54139;SDS011;40046;53.254;5.900;2023-07-29T04:34:37;10.27;;;3.40;;
54139;SDS011;40046;53.254;5.900;2023-07-29T04:37:03;7.60;;;3.80;;
54139;SDS011;40046;53.254;5.900;2023-07-29T04:39:29;8.80;;;2.95;;
54139;SDS011;40046;53.254;5.900;2023-07-29T04:41:55;6.68;;;3.45;;
54139;SDS011;40046;53.254;5.900;2023-07-29T04:44:22;7.25;;;3.20;;
54139;SDS011;40046;53.254;5.900;2023-07-29T04:46:49;6.45;;;3.67;;
54139;SDS011;40046;53.254;5.900;2023-07-29T04:49:15;10.35;;;4.40;;
54139;SDS011;40046;53.254;5.900;2023-07-29T04:51:41;6.32;;;2.80;;
54139;SDS011;40046;53.254;5.900;2023-07-29T04:54:08;16.02;;;4.22;;
54139;SDS011;40046;53.254;5.900;2023-07-29T04:56:34;7.05;;;3.25;;
54139;SDS011;40046;53.254;5.900;2023-07-29T04:59:00;12.90;;;3.50;;
54139;SDS011;40046;53.254;5.900;2023-07-29T05:01:26;12.65;;;4.03;;
54139;SDS011;40046;53.254;5.900;2023-07-29T05:03:52;8.90;;;3.40;;
54139;SDS011;40046;53.254;5.900;2023-07-29T05:06:18;8.15;;;3.50;;
54139;SDS011;40046;53.254;5.900;2023-07-29T05:08:44;8.00;;;3.63;;
54139;SDS011;40046;53.254;5.900;2023-07-29T05:11:11;7.53;;;2.92;;
54139;SDS011;40046;53.254;5.900;2023-07-29T05:13:37;11.50;;;3.17;;
54139;SDS011;40046;53.254;5.900;2023-07-29T05:16:04;9.43;;;3.90;;
54139;SDS011;40046;53.254;5.900;2023-07-29T05:18:30;7.18;;;2.88;;
54139;SDS011;40046;53.254;5.900;2023-07-29T05:20:56;13.13;;;3.53;;
54139;SDS011;40046;53.254;5.900;2023-07-29T05:23:22;7.80;;;2.72;;
54139;SDS011;40046;53.254;5.900;2023-07-29T05:25:48;10.50;;;3.30;;
54139;SDS011;40046;53.254;5.900;2023-07-29T05:28:15;7.35;;;3.03;;
54139;SDS011;40046;53.254;5.900;2023-07-29T05:30:43;7.60;;;2.60;;
54139;SDS011;40046;53.254;5.900;2023-07-29T05:33:09;8.00;;;3.42;;
54139;SDS011;40046;53.254;5.900;2023-07-29T05:35:37;5.32;;;3.15;;
54139;SDS011;40046;53.254;5.900;2023-07-29T05:38:03;7.95;;;3.67;;
54139;SDS011;40046;53.254;5.900;2023-07-29T05:40:31;7.28;;;3.10;;
54139;SDS011;40046;53.254;5.900;2023-07-29T05:42:58;4.78;;;2.63;;
54139;SDS011;40046;53.254;5.900;2023-07-29T05:45:24;9.68;;;2.97;;
54139;SDS011;40046;53.254;5.900;2023-07-29T05:47:50;10.38;;;3.35;;
54139;SDS011;40046;53.254;5.900;2023-07-29T05:50:16;9.02;;;3.20;;
54139;SDS011;40046;53.254;5.900;2023-07-29T05:52:43;10.63;;;4.47;;
54139;SDS011;40046;53.254;5.900;2023-07-29T05:55:09;8.38;;;3.60;;
54139;SDS011;40046;53.254;5.900;2023-07-29T05:57:35;9.55;;;4.07;;
54139;SDS011;40046;53.254;5.900;2023-07-29T06:00:01;7.68;;;3.17;;
54139;SDS011;40046;53.254;5.900;2023-07-29T06:02:38;9.57;;;3.58;;
54139;SDS011;40046;53.254;5.900;2023-07-29T06:05:07;13.32;;;4.25;;
54139;SDS011;40046;53.254;5.900;2023-07-29T06:07:33;13.95;;;4.43;;
54139;SDS011;40046;53.254;5.900;2023-07-29T06:09:59;12.23;;;4.05;;
54139;SDS011;40046;53.254;5.900;2023-07-29T06:12:25;9.68;;;4.07;;
54139;SDS011;40046;53.254;5.900;2023-07-29T06:14:52;10.57;;;4.10;;
54139;SDS011;40046;53.254;5.900;2023-07-29T06:17:18;12.30;;;4.32;;
54139;SDS011;40046;53.254;5.900;2023-07-29T06:19:45;10.05;;;3.75;;
54139;SDS011;40046;53.254;5.900;2023-07-29T06:22:11;9.88;;;4.05;;
54139;SDS011;40046;53.254;5.900;2023-07-29T06:24:37;9.88;;;3.72;;
54139;SDS011;40046;53.254;5.900;2023-07-29T06:27:03;11.00;;;4.65;;
54139;SDS011;40046;53.254;5.900;2023-07-29T06:29:29;10.48;;;3.58;;
54139;SDS011;40046;53.254;5.900;2023-07-29T06:31:55;9.20;;;4.10;;
54139;SDS011;40046;53.254;5.900;2023-07-29T06:34:21;10.98;;;4.75;;
54139;SDS011;40046;53.254;5.900;2023-07-29T06:36:48;7.82;;;3.60;;
54139;SDS011;40046;53.254;5.900;2023-07-29T06:39:14;6.47;;;3.40;;
54139;SDS011;40046;53.254;5.900;2023-07-29T06:41:40;13.30;;;3.85;;
54139;SDS011;40046;53.254;5.900;2023-07-29T06:44:06;6.55;;;3.75;;
54139;SDS011;40046;53.254;5.900;2023-07-29T06:46:32;10.52;;;4.97;;
54139;SDS011;40046;53.254;5.900;2023-07-29T06:48:58;10.48;;;3.95;;
54139;SDS011;40046;53.254;5.900;2023-07-29T06:51:24;10.98;;;5.90;;
54139;SDS011;40046;53.254;5.900;2023-07-29T06:53:50;10.98;;;5.03;;
54139;SDS011;40046;53.254;5.900;2023-07-29T06:56:17;12.45;;;4.80;;
54139;SDS011;40046;53.254;5.900;2023-07-29T06:58:43;7.95;;;3.00;;
54139;SDS011;40046;53.254;5.900;2023-07-29T07:01:09;8.80;;;3.83;;
54139;SDS011;40046;53.254;5.900;2023-07-29T07:03:35;12.88;;;3.65;;
54139;SDS011;40046;53.254;5.900;2023-07-29T07:06:01;9.70;;;3.08;;
54139;SDS011;40046;53.254;5.900;2023-07-29T07:08:28;9.27;;;4.18;;
54139;SDS011;40046;53.254;5.900;2023-07-29T07:10:56;10.13;;;4.30;;
54139;SDS011;40046;53.254;5.900;2023-07-29T07:13:22;10.80;;;4.57;;
54139;SDS011;40046;53.254;5.900;2023-07-29T07:15:48;10.48;;;3.88;;
54139;SDS011;40046;53.254;5.900;2023-07-29T07:18:14;9.40;;;3.97;;
54139;SDS011;40046;53.254;5.900;2023-07-29T07:20:40;12.75;;;3.70;;
54139;SDS011;40046;53.254;5.900;2023-07-29T07:23:06;9.98;;;3.65;;
54139;SDS011;40046;53.254;5.900;2023-07-29T07:25:36;9.60;;;3.53;;
54139;SDS011;40046;53.254;5.900;2023-07-29T07:28:02;14.93;;;4.35;;
54139;SDS011;40046;53.254;5.900;2023-07-29T07:30:28;10.73;;;3.80;;
54139;SDS011;40046;53.254;5.900;2023-07-29T07:32:54;11.18;;;3.42;;
54139;SDS011;40046;53.254;5.900;2023-07-29T07:35:21;8.75;;;3.60;;
54139;SDS011;40046;53.254;5.900;2023-07-29T07:37:47;7.43;;;3.08;;
54139;SDS011;40046;53.254;5.900;2023-07-29T07:40:13;6.85;;;2.92;;
54139;SDS011;40046;53.254;5.900;2023-07-29T07:42:39;10.18;;;3.05;;
54139;SDS011;40046;53.254;5.900;2023-07-29T07:45:05;8.65;;;2.65;;
54139;SDS011;40046;53.254;5.900;2023-07-29T07:47:31;12.48;;;3.63;;
54139;SDS011;40046;53.254;5.900;2023-07-29T07:49:57;9.45;;;3.55;;
54139;SDS011;40046;53.254;5.900;2023-07-29T07:52:23;10.60;;;3.20;;
54139;SDS011;40046;53.254;5.900;2023-07-29T07:54:53;11.48;;;5.75;;
54139;SDS011;40046;53.254;5.900;2023-07-29T07:57:22;8.85;;;3.00;;
54139;SDS011;40046;53.254;5.900;2023-07-29T07:59:48;8.18;;;3.20;;
54139;SDS011;40046;53.254;5.900;2023-07-29T08:02:15;8.30;;;4.05;;
54139;SDS011;40046;53.254;5.900;2023-07-29T08:04:42;9.02;;;2.85;;
54139;SDS011;40046;53.254;5.900;2023-07-29T08:07:08;9.18;;;2.95;;
54139;SDS011;40046;53.254;5.900;2023-07-29T08:09:34;9.00;;;2.85;;
54139;SDS011;40046;53.254;5.900;2023-07-29T08:12:00;6.65;;;2.67;;
54139;SDS011;40046;53.254;5.900;2023-07-29T08:14:26;8.60;;;2.53;;
54139;SDS011;40046;53.254;5.900;2023-07-29T08:16:52;5.65;;;2.53;;
54139;SDS011;40046;53.254;5.900;2023-07-29T08:19:18;12.77;;;7.30;;
54139;SDS011;40046;53.254;5.900;2023-07-29T08:21:44;13.32;;;4.28;;
54139;SDS011;40046;53.254;5.900;2023-07-29T08:24:11;9.80;;;3.45;;
54139;SDS011;40046;53.254;5.900;2023-07-29T08:26:37;8.77;;;3.08;;
54139;SDS011;40046;53.254;5.900;2023-07-29T08:29:03;6.80;;;2.80;;
54139;SDS011;40046;53.254;5.900;2023-07-29T08:31:29;13.05;;;3.22;;
54139;SDS011;40046;53.254;5.900;2023-07-29T08:33:58;8.40;;;2.50;;
54139;SDS011;40046;53.254;5.900;2023-07-29T08:36:25;6.07;;;1.88;;
54139;SDS011;40046;53.254;5.900;2023-07-29T08:38:51;8.65;;;2.17;;
54139;SDS011;40046;53.254;5.900;2023-07-29T08:41:28;5.72;;;1.85;;
54139;SDS011;40046;53.254;5.900;2023-07-29T08:44:01;6.07;;;1.52;;
54139;SDS011;40046;53.254;5.900;2023-07-29T08:46:32;7.22;;;2.58;;
54139;SDS011;40046;53.254;5.900;2023-07-29T08:48:59;5.28;;;1.90;;
54139;SDS011;40046;53.254;5.900;2023-07-29T08:51:26;10.57;;;3.20;;
54139;SDS011;40046;53.254;5.900;2023-07-29T08:53:53;6.90;;;1.70;;
54139;SDS011;40046;53.254;5.900;2023-07-29T08:56:19;6.95;;;2.30;;
54139;SDS011;40046;53.254;5.900;2023-07-29T08:58:45;8.45;;;2.38;;
54139;SDS011;40046;53.254;5.900;2023-07-29T09:01:12;9.90;;;2.25;;
54139;SDS011;40046;53.254;5.900;2023-07-29T09:03:38;9.02;;;2.50;;
54139;SDS011;40046;53.254;5.900;2023-07-29T09:06:04;8.10;;;2.03;;
54139;SDS011;40046;53.254;5.900;2023-07-29T09:08:31;7.50;;;2.63;;
54139;SDS011;40046;53.254;5.900;2023-07-29T09:10:57;8.70;;;1.95;;
54139;SDS011;40046;53.254;5.900;2023-07-29T09:13:24;6.45;;;2.15;;
54139;SDS011;40046;53.254;5.900;2023-07-29T09:15:53;8.57;;;2.05;;
54139;SDS011;40046;53.254;5.900;2023-07-29T09:18:20;9.52;;;1.67;;
54139;SDS011;40046;53.254;5.900;2023-07-29T09:20:47;5.05;;;1.35;;
54139;SDS011;40046;53.254;5.900;2023-07-29T09:23:14;4.57;;;1.35;;
54139;SDS011;40046;53.254;5.900;2023-07-29T09:25:40;8.18;;;1.58;;
54139;SDS011;40046;53.254;5.900;2023-07-29T09:28:10;4.70;;;1.70;;
54139;SDS011;40046;53.254;5.900;2023-07-29T09:30:37;5.60;;;2.00;;
54139;SDS011;40046;53.254;5.900;2023-07-29T09:33:04;3.97;;;2.00;;
54139;SDS011;40046;53.254;5.900;2023-07-29T09:35:30;6.57;;;1.33;;
54139;SDS011;40046;53.254;5.900;2023-07-29T09:37:58;4.93;;;1.60;;
54139;SDS011;40046;53.254;5.900;2023-07-29T09:40:24;5.55;;;1.70;;
54139;SDS011;40046;53.254;5.900;2023-07-29T09:42:51;10.52;;;5.15;;
54139;SDS011;40046;53.254;5.900;2023-07-29T09:45:24;8.60;;;2.30;;
54139;SDS011;40046;53.254;5.900;2023-07-29T09:47:51;7.03;;;1.77;;
54139;SDS011;40046;53.254;5.900;2023-07-29T09:50:17;8.23;;;1.88;;
54139;SDS011;40046;53.254;5.900;2023-07-29T09:52:44;7.93;;;1.88;;
54139;SDS011;40046;53.254;5.900;2023-07-29T09:55:13;4.85;;;1.80;;
54139;SDS011;40046;53.254;5.900;2023-07-29T09:57:43;3.42;;;1.52;;
54139;SDS011;40046;53.254;5.900;2023-07-29T10:00:10;8.00;;;1.60;;
54139;SDS011;40046;53.254;5.900;2023-07-29T10:02:38;4.50;;;1.65;;
54139;SDS011;40046;53.254;5.900;2023-07-29T10:05:05;5.30;;;2.10;;
54139;SDS011;40046;53.254;5.900;2023-07-29T10:07:31;4.88;;;1.33;;
54139;SDS011;40046;53.254;5.900;2023-07-29T10:09:59;6.05;;;2.75;;
54139;SDS011;40046;53.254;5.900;2023-07-29T10:12:25;6.78;;;1.75;;
54139;SDS011;40046;53.254;5.900;2023-07-29T10:14:51;7.72;;;1.98;;
54139;SDS011;40046;53.254;5.900;2023-07-29T10:17:18;3.83;;;1.70;;
54139;SDS011;40046;53.254;5.900;2023-07-29T10:19:45;6.63;;;2.00;;
54139;SDS011;40046;53.254;5.900;2023-07-29T10:22:12;6.63;;;1.98;;
54139;SDS011;40046;53.254;5.900;2023-07-29T10:24:39;6.28;;;1.55;;
54139;SDS011;40046;53.254;5.900;2023-07-29T10:27:06;5.00;;;1.63;;
54139;SDS011;40046;53.254;5.900;2023-07-29T10:29:32;5.65;;;2.10;;
54139;SDS011;40046;53.254;5.900;2023-07-29T10:32:03;5.10;;;1.77;;
54139;SDS011;40046;53.254;5.900;2023-07-29T10:34:33;4.32;;;1.90;;
54139;SDS011;40046;53.254;5.900;2023-07-29T10:37:00;4.45;;;1.38;;
54139;SDS011;40046;53.254;5.900;2023-07-29T10:39:27;4.70;;;1.88;;
54139;SDS011;40046;53.254;5.900;2023-07-29T10:47:21;5.28;;;2.13;;
54139;SDS011;40046;53.254;5.900;2023-07-29T10:49:51;3.17;;;1.30;;
54139;SDS011;40046;53.254;5.900;2023-07-29T10:52:29;6.03;;;2.15;;
54139;SDS011;40046;53.254;5.900;2023-07-29T10:54:55;3.63;;;1.60;;
54139;SDS011;40046;53.254;5.900;2023-07-29T10:57:37;5.65;;;1.80;;
54139;SDS011;40046;53.254;5.900;2023-07-29T11:00:04;4.68;;;2.00;;
54139;SDS011;40046;53.254;5.900;2023-07-29T11:02:31;5.05;;;2.05;;
54139;SDS011;40046;53.254;5.900;2023-07-29T11:04:58;5.30;;;2.15;;
54139;SDS011;40046;53.254;5.900;2023-07-29T11:07:25;6.03;;;2.13;;
54139;SDS011;40046;53.254;5.900;2023-07-29T11:10:01;3.90;;;1.00;;
54139;SDS011;40046;53.254;5.900;2023-07-29T11:12:43;3.33;;;1.10;;
54139;SDS011;40046;53.254;5.900;2023-07-29T11:17:53;4.65;;;1.48;;
54139;SDS011;40046;53.254;5.900;2023-07-29T11:20:21;4.57;;;1.50;;
54139;SDS011;40046;53.254;5.900;2023-07-29T11:22:47;7.15;;;1.80;;
54139;SDS011;40046;53.254;5.900;2023-07-29T11:25:14;3.17;;;1.40;;
54139;SDS011;40046;53.254;5.900;2023-07-29T11:27:41;3.40;;;1.48;;
54139;SDS011;40046;53.254;5.900;2023-07-29T11:30:08;3.15;;;1.50;;
54139;SDS011;40046;53.254;5.900;2023-07-29T11:32:35;4.38;;;1.55;;
54139;SDS011;40046;53.254;5.900;2023-07-29T11:35:02;3.20;;;1.10;;
54139;SDS011;40046;53.254;5.900;2023-07-29T11:37:29;3.50;;;1.30;;
54139;SDS011;40046;53.254;5.900;2023-07-29T11:39:55;4.63;;;1.45;;
54139;SDS011;40046;53.254;5.900;2023-07-29T11:42:21;4.25;;;1.42;;
54139;SDS011;40046;53.254;5.900;2023-07-29T11:44:47;7.45;;;1.98;;
54139;SDS011;40046;53.254;5.900;2023-07-29T11:47:13;8.63;;;2.22;;
54139;SDS011;40046;53.254;5.900;2023-07-29T11:49:40;5.05;;;1.42;;
54139;SDS011;40046;53.254;5.900;2023-07-29T11:52:09;4.93;;;1.20;;
54139;SDS011;40046;53.254;5.900;2023-07-29T11:54:36;4.30;;;1.83;;
54139;SDS011;40046;53.254;5.900;2023-07-29T11:57:03;6.72;;;1.50;;
54139;SDS011;40046;53.254;5.900;2023-07-29T11:59:30;8.07;;;4.28;;
54139;SDS011;40046;53.254;5.900;2023-07-29T12:01:56;7.53;;;2.28;;
54139;SDS011;40046;53.254;5.900;2023-07-29T12:04:22;5.63;;;1.55;;
54139;SDS011;40046;53.254;5.900;2023-07-29T12:06:49;9.02;;;1.70;;
54139;SDS011;40046;53.254;5.900;2023-07-29T12:09:15;4.53;;;1.25;;
54139;SDS011;40046;53.254;5.900;2023-07-29T12:11:41;7.25;;;1.73;;
54139;SDS011;40046;53.254;5.900;2023-07-29T12:14:07;5.68;;;1.52;;
54139;SDS011;40046;53.254;5.900;2023-07-29T12:16:41;4.63;;;1.35;;
54139;SDS011;40046;53.254;5.900;2023-07-29T12:19:07;3.35;;;1.05;;
54139;SDS011;40046;53.254;5.900;2023-07-29T12:21:33;9.60;;;1.77;;
54139;SDS011;40046;53.254;5.900;2023-07-29T12:23:59;5.05;;;1.50;;
54139;SDS011;40046;53.254;5.900;2023-07-29T12:26:29;7.22;;;1.65;;
54139;SDS011;40046;53.254;5.900;2023-07-29T12:28:55;4.65;;;1.90;;
54139;SDS011;40046;53.254;5.900;2023-07-29T12:31:33;6.75;;;1.77;;
54139;SDS011;40046;53.254;5.900;2023-07-29T12:33:59;8.80;;;2.22;;
54139;SDS011;40046;53.254;5.900;2023-07-29T12:36:44;7.80;;;2.15;;
54139;SDS011;40046;53.254;5.900;2023-07-29T12:39:17;7.03;;;1.42;;
54139;SDS011;40046;53.254;5.900;2023-07-29T12:41:44;6.07;;;2.15;;
54139;SDS011;40046;53.254;5.900;2023-07-29T12:44:10;6.50;;;2.00;;
54139;SDS011;40046;53.254;5.900;2023-07-29T12:46:36;6.60;;;1.80;;
54139;SDS011;40046;53.254;5.900;2023-07-29T12:49:02;6.30;;;1.85;;
54139;SDS011;40046;53.254;5.900;2023-07-29T12:51:28;7.07;;;1.85;;
54139;SDS011;40046;53.254;5.900;2023-07-29T12:53:55;7.70;;;1.80;;
54139;SDS011;40046;53.254;5.900;2023-07-29T12:56:21;6.95;;;2.05;;
54139;SDS011;40046;53.254;5.900;2023-07-29T12:58:47;8.55;;;2.35;;
54139;SDS011;40046;53.254;5.900;2023-07-29T13:01:13;8.10;;;1.75;;
54139;SDS011;40046;53.254;5.900;2023-07-29T13:03:42;5.25;;;1.90;;
54139;SDS011;40046;53.254;5.900;2023-07-29T13:06:09;9.32;;;2.85;;
54139;SDS011;40046;53.254;5.900;2023-07-29T13:08:35;6.50;;;2.70;;
54139;SDS011;40046;53.254;5.900;2023-07-29T13:11:01;7.10;;;2.50;;
54139;SDS011;40046;53.254;5.900;2023-07-29T13:13:28;5.55;;;2.08;;
54139;SDS011;40046;53.254;5.900;2023-07-29T13:15:54;5.95;;;2.15;;
54139;SDS011;40046;53.254;5.900;2023-07-29T13:18:21;6.88;;;2.17;;
54139;SDS011;40046;53.254;5.900;2023-07-29T13:20:47;8.50;;;2.30;;
54139;SDS011;40046;53.254;5.900;2023-07-29T13:23:13;9.10;;;2.28;;
54139;SDS011;40046;53.254;5.900;2023-07-29T13:25:39;9.25;;;3.40;;
54139;SDS011;40046;53.254;5.900;2023-07-29T13:28:05;7.13;;;1.98;;
54139;SDS011;40046;53.254;5.900;2023-07-29T13:30:32;5.30;;;1.83;;
54139;SDS011;40046;53.254;5.900;2023-07-29T13:32:58;6.68;;;2.40;;
54139;SDS011;40046;53.254;5.900;2023-07-29T13:35:24;6.47;;;1.98;;
54139;SDS011;40046;53.254;5.900;2023-07-29T13:37:50;5.43;;;1.75;;
54139;SDS011;40046;53.254;5.900;2023-07-29T13:40:16;5.88;;;1.77;;
54139;SDS011;40046;53.254;5.900;2023-07-29T13:42:43;7.22;;;2.38;;
54139;SDS011;40046;53.254;5.900;2023-07-29T13:45:09;6.20;;;1.67;;
54139;SDS011;40046;53.254;5.900;2023-07-29T13:47:35;6.35;;;1.90;;
54139;SDS011;40046;53.254;5.900;2023-07-29T13:50:02;7.57;;;1.90;;
54139;SDS011;40046;53.254;5.900;2023-07-29T13:52:28;7.60;;;2.35;;
54139;SDS011;40046;53.254;5.900;2023-07-29T13:54:54;5.30;;;2.05;;
54139;SDS011;40046;53.254;5.900;2023-07-29T13:57:20;5.03;;;1.75;;
54139;SDS011;40046;53.254;5.900;2023-07-29T13:59:47;9.88;;;3.40;;
54139;SDS011;40046;53.254;5.900;2023-07-29T14:02:13;6.57;;;2.60;;
54139;SDS011;40046;53.254;5.900;2023-07-29T14:04:39;8.07;;;2.78;;
54139;SDS011;40046;53.254;5.900;2023-07-29T14:07:05;7.57;;;2.33;;
54139;SDS011;40046;53.254;5.900;2023-07-29T14:09:31;9.60;;;2.58;;
54139;SDS011;40046;53.254;5.900;2023-07-29T14:11:57;5.30;;;2.03;;
54139;SDS011;40046;53.254;5.900;2023-07-29T14:14:23;6.68;;;1.92;;
54139;SDS011;40046;53.254;5.900;2023-07-29T14:16:49;8.80;;;2.85;;
54139;SDS011;40046;53.254;5.900;2023-07-29T14:19:15;6.68;;;1.70;;
54139;SDS011;40046;53.254;5.900;2023-07-29T14:21:41;5.38;;;1.50;;
54139;SDS011;40046;53.254;5.900;2023-07-29T14:24:08;8.73;;;2.17;;
54139;SDS011;40046;53.254;5.900;2023-07-29T14:26:34;7.10;;;1.40;;
54139;SDS011;40046;53.254;5.900;2023-07-29T14:29:00;7.32;;;2.00;;
54139;SDS011;40046;53.254;5.900;2023-07-29T14:31:26;6.90;;;1.65;;
54139;SDS011;40046;53.254;5.900;2023-07-29T14:33:52;6.45;;;1.60;;
54139;SDS011;40046;53.254;5.900;2023-07-29T14:36:18;5.25;;;1.88;;
54139;SDS011;40046;53.254;5.900;2023-07-29T14:38:44;5.93;;;1.70;;
54139;SDS011;40046;53.254;5.900;2023-07-29T14:41:10;4.82;;;1.55;;
54139;SDS011;40046;53.254;5.900;2023-07-29T14:43:36;5.85;;;1.70;;
54139;SDS011;40046;53.254;5.900;2023-07-29T14:46:03;4.28;;;1.30;;
54139;SDS011;40046;53.254;5.900;2023-07-29T14:48:29;4.82;;;1.77;;
54139;SDS011;40046;53.254;5.900;2023-07-29T14:50:55;3.90;;;1.38;;